Time;durP1;ratioP1;P1;durP2;ratioP2;P2;SDS_P1;SDS_P2;PMS_P1;PMS_P2;Temp;Humidity;BMP_temperature;BMP_pressure;BME280_temperature;BME280_humidity;BME280_pressure;Samples;Min_cycle;Max_cycle;Signal;HPM_P1;HPM_P2
2023/08/25 00:01:16;;;;;;;5.00;2.07;;;20.10;99.90;;;;;;4973861;28;20287;-64
2023/08/25 00:03:42;;;;;;;3.53;1.57;;;20.10;99.90;;;;;;4974071;28;20438;-64
2023/08/25 00:06:08;;;;;;;2.60;1.60;;;20.10;99.90;;;;;;4975410;28;20552;-64
2023/08/25 00:08:33;;;;;;;3.77;1.20;;;20.00;99.90;;;;;;4992038;28;20474;-65
2023/08/25 00:10:59;;;;;;;2.60;1.50;;;20.00;99.90;;;;;;4984561;28;20295;-64
2023/08/25 00:13:24;;;;;;;2.50;1.37;;;20.00;99.90;;;;;;4973886;28;20195;-65
2023/08/25 00:15:50;;;;;;;4.03;1.67;;;20.00;99.90;;;;;;4973529;28;20621;-64
2023/08/25 00:18:16;;;;;;;2.57;1.30;;;20.00;99.90;;;;;;4974153;28;20227;-64
2023/08/25 00:20:42;;;;;;;6.83;2.00;;;20.10;99.90;;;;;;4974089;28;20231;-64
2023/08/25 00:23:08;;;;;;;2.87;1.40;;;20.10;99.90;;;;;;4984318;28;20211;-64
2023/08/25 00:25:33;;;;;;;3.83;1.30;;;20.10;99.90;;;;;;4978636;28;20184;-64
2023/08/25 00:27:59;;;;;;;2.47;1.20;;;20.00;99.90;;;;;;4991925;28;20423;-64
2023/08/25 00:30:26;;;;;;;1.90;1.27;;;20.00;99.90;;;;;;4980607;28;20211;-64
2023/08/25 00:32:51;;;;;;;10.33;2.10;;;19.90;99.90;;;;;;4972593;28;20424;-64
2023/08/25 00:35:17;;;;;;;4.20;1.60;;;19.90;99.90;;;;;;4980738;28;20442;-64
2023/08/25 00:37:43;;;;;;;3.20;1.30;;;19.90;99.90;;;;;;4973434;28;20181;-64
2023/08/25 00:40:10;;;;;;;2.80;1.20;;;19.80;99.90;;;;;;4973917;28;20195;-65
2023/08/25 00:42:35;;;;;;;1.60;0.90;;;19.80;99.90;;;;;;4973794;28;20249;-64
2023/08/25 00:45:01;;;;;;;2.00;1.20;;;19.80;99.90;;;;;;4973680;28;20768;-64
2023/08/25 00:47:27;;;;;;;10.00;1.60;;;19.80;99.90;;;;;;4973352;28;20271;-65
2023/08/25 00:49:54;;;;;;;5.90;1.93;;;19.80;99.90;;;;;;4973637;28;20215;-64
2023/08/25 00:52:22;;;;;;;4.63;1.70;;;19.70;99.90;;;;;;4977133;28;20453;-64
2023/08/25 00:54:53;;;;;;;5.47;1.87;;;19.80;99.90;;;;;;4973030;28;20726;-64
2023/08/25 00:57:19;;;;;;;4.20;1.57;;;19.70;99.90;;;;;;4973189;28;20432;-64
2023/08/25 00:59:46;;;;;;;2.33;1.50;;;19.70;99.90;;;;;;4982191;28;20459;-64
2023/08/25 01:02:12;;;;;;;2.50;1.53;;;19.80;99.90;;;;;;4984364;28;20543;-65
2023/08/25 01:04:38;;;;;;;3.53;1.90;;;19.70;99.90;;;;;;4986000;28;20435;-65
2023/08/25 01:07:04;;;;;;;3.30;1.60;;;19.70;99.90;;;;;;4980670;28;20913;-64
2023/08/25 01:09:31;;;;;;;2.47;1.40;;;19.70;99.90;;;;;;4984769;28;20463;-65
2023/08/25 01:12:04;;;;;;;5.77;1.20;;;19.70;99.90;;;;;;4984025;28;20199;-64
2023/08/25 01:14:47;;;;;;;4.07;1.87;;;19.70;99.90;;;;;;4972897;28;20463;-65
2023/08/25 01:17:24;;;;;;;2.27;1.23;;;19.70;99.90;;;;;;4983241;28;20457;-64
2023/08/25 01:19:56;;;;;;;3.40;1.73;;;19.80;99.90;;;;;;4997405;28;20442;-64
2023/08/25 01:22:35;;;;;;;2.87;1.67;;;19.80;99.90;;;;;;5006587;28;20430;-65
2023/08/25 01:25:24;;;;;;;2.57;1.30;;;19.80;99.90;;;;;;4998052;28;20440;-64
2023/08/25 01:27:50;;;;;;;11.67;1.77;;;19.80;99.90;;;;;;4991865;28;20438;-64
2023/08/25 01:30:16;;;;;;;3.93;1.73;;;19.80;99.90;;;;;;5005674;28;20466;-64
2023/08/25 01:32:42;;;;;;;4.73;1.50;;;19.80;99.90;;;;;;5011111;28;20422;-64
2023/08/25 01:35:08;;;;;;;3.93;1.40;;;19.80;99.90;;;;;;5004722;28;20195;-64
2023/08/25 01:37:47;;;;;;;7.50;1.20;;;19.70;99.90;;;;;;5011515;28;20209;-65
2023/08/25 01:40:28;;;;;;;4.80;2.10;;;19.70;99.90;;;;;;5011726;28;20839;-65
2023/08/25 01:42:55;;;;;;;2.90;1.70;;;19.70;99.90;;;;;;5011324;28;20425;-65
2023/08/25 01:45:23;;;;;;;5.17;2.47;;;19.80;99.90;;;;;;5011233;28;20509;-64
2023/08/25 01:47:51;;;;;;;8.10;1.63;;;19.80;99.90;;;;;;5005813;28;20812;-64
2023/08/25 01:50:19;;;;;;;2.63;1.47;;;19.80;99.90;;;;;;5003321;28;20552;-64
2023/08/25 01:52:45;;;;;;;2.30;1.30;;;19.70;99.90;;;;;;4998123;28;20436;-64
2023/08/25 01:55:11;;;;;;;8.93;1.80;;;19.70;99.90;;;;;;4998777;28;20435;-65
2023/08/25 01:57:37;;;;;;;3.10;1.33;;;19.60;99.90;;;;;;5004597;28;20754;-64
2023/08/25 02:00:04;;;;;;;5.60;1.30;;;19.50;99.90;;;;;;4992382;28;20188;-64
2023/08/25 02:02:30;;;;;;;1.90;1.30;;;19.50;99.90;;;;;;5009779;28;20187;-65
2023/08/25 02:04:55;;;;;;;2.93;1.70;;;19.50;99.90;;;;;;5010983;28;20744;-64
2023/08/25 02:07:21;;;;;;;2.57;1.47;;;19.50;99.90;;;;;;4999135;28;20273;-65
2023/08/25 02:09:47;;;;;;;5.40;1.90;;;19.50;99.90;;;;;;4993889;28;20302;-65
2023/08/25 02:12:12;;;;;;;4.90;1.30;;;19.60;99.90;;;;;;5009612;28;20194;-65
2023/08/25 02:14:38;;;;;;;7.43;2.40;;;19.60;99.90;;;;;;4999185;28;20212;-65
2023/08/25 02:17:04;;;;;;;4.13;1.37;;;19.50;99.90;;;;;;5003697;28;20640;-64
2023/08/25 02:19:29;;;;;;;3.10;1.60;;;19.50;99.90;;;;;;5003041;28;20296;-64
2023/08/25 02:21:55;;;;;;;3.40;1.70;;;19.50;99.90;;;;;;5010192;28;20182;-65
2023/08/25 02:24:20;;;;;;;9.40;1.73;;;19.50;99.90;;;;;;5009743;28;20187;-64
2023/08/25 02:26:46;;;;;;;3.13;1.40;;;19.50;99.90;;;;;;4994337;28;20480;-64
2023/08/25 02:29:12;;;;;;;2.33;1.20;;;19.50;99.90;;;;;;4996997;28;21048;-64
2023/08/25 02:31:38;;;;;;;3.20;1.70;;;19.50;99.90;;;;;;5007770;28;20289;-65
2023/08/25 02:34:03;;;;;;;2.47;0.90;;;19.50;99.90;;;;;;5004466;28;20183;-64
2023/08/25 02:36:29;;;;;;;2.77;1.57;;;19.60;99.90;;;;;;5007963;28;20205;-64
2023/08/25 02:38:54;;;;;;;6.23;2.00;;;19.60;99.90;;;;;;5009859;28;20597;-64
2023/08/25 02:41:20;;;;;;;6.40;1.53;;;19.70;99.90;;;;;;5009689;28;20666;-64
2023/08/25 02:43:45;;;;;;;7.23;2.40;;;19.70;99.90;;;;;;4998171;28;20242;-64
2023/08/25 02:46:11;;;;;;;3.70;1.90;;;19.60;99.90;;;;;;5007188;28;20198;-64
2023/08/25 02:48:37;;;;;;;4.77;1.70;;;19.60;99.90;;;;;;5009755;28;20191;-64
2023/08/25 02:51:02;;;;;;;4.00;1.37;;;19.50;99.90;;;;;;5008886;28;20312;-65
2023/08/25 02:53:28;;;;;;;3.97;2.10;;;19.50;99.90;;;;;;5009315;28;20479;-64
2023/08/25 02:55:53;;;;;;;11.33;1.47;;;19.50;99.90;;;;;;5009365;28;20494;-64
2023/08/25 02:58:19;;;;;;;2.47;1.30;;;19.60;99.90;;;;;;5009594;28;20305;-64
2023/08/25 03:00:45;;;;;;;5.50;1.67;;;19.60;99.90;;;;;;4995739;28;20187;-64
2023/08/25 03:03:10;;;;;;;5.77;1.73;;;19.60;99.90;;;;;;5009022;28;20187;-64
2023/08/25 03:05:38;;;;;;;2.37;1.33;;;19.50;99.90;;;;;;5008791;28;20199;-64
2023/08/25 03:08:04;;;;;;;9.70;3.17;;;19.60;99.90;;;;;;4992778;28;20195;-64
2023/08/25 03:10:30;;;;;;;2.00;1.27;;;19.50;99.90;;;;;;4995947;28;20461;-64
2023/08/25 03:12:55;;;;;;;2.43;1.23;;;19.50;99.90;;;;;;5009234;28;20782;-65
2023/08/25 03:15:21;;;;;;;3.63;1.23;;;19.50;99.90;;;;;;5008869;28;20191;-64
2023/08/25 03:17:47;;;;;;;4.77;2.00;;;19.50;99.90;;;;;;5008816;28;20545;-64
2023/08/25 03:20:12;;;;;;;3.30;1.40;;;19.50;99.90;;;;;;4969941;28;1136385;-64
2023/08/25 03:22:38;;;;;;;5.17;1.70;;;19.50;99.90;;;;;;5009868;28;20194;-65
2023/08/25 03:25:04;;;;;;;5.23;1.60;;;19.50;99.90;;;;;;5008878;28;20198;-64
2023/08/25 03:27:32;;;;;;;4.90;1.40;;;19.50;99.90;;;;;;4990744;28;20222;-65
2023/08/25 03:29:58;;;;;;;8.47;1.80;;;19.50;99.90;;;;;;5005019;28;20462;-64
2023/08/25 03:32:23;;;;;;;3.67;1.70;;;19.50;99.90;;;;;;5013551;28;20490;-64
2023/08/25 03:34:49;;;;;;;8.10;1.87;;;19.60;99.90;;;;;;5006301;28;20183;-64
2023/08/25 03:37:15;;;;;;;3.10;1.97;;;19.60;99.90;;;;;;5013792;28;20226;-64
2023/08/25 03:39:40;;;;;;;2.13;1.30;;;19.60;99.90;;;;;;5013844;28;20614;-64
2023/08/25 03:42:06;;;;;;;4.77;1.60;;;19.60;99.90;;;;;;5013989;28;20187;-64
2023/08/25 03:44:32;;;;;;;3.93;1.90;;;19.60;99.90;;;;;;5013608;28;20191;-64
2023/08/25 03:46:57;;;;;;;4.77;1.60;;;19.60;99.90;;;;;;5013260;28;20237;-64
2023/08/25 03:49:27;;;;;;;12.03;2.13;;;19.60;99.90;;;;;;5013729;28;20187;-65
2023/08/25 03:51:53;;;;;;;9.93;1.73;;;19.60;99.90;;;;;;5002716;28;20728;-64
2023/08/25 03:54:19;;;;;;;2.10;1.37;;;19.60;99.90;;;;;;5011923;28;20430;-64
2023/08/25 03:56:44;;;;;;;2.63;1.63;;;19.60;99.90;;;;;;5002911;28;20267;-64
2023/08/25 03:59:11;;;;;;;3.27;1.70;;;19.50;99.90;;;;;;5007395;28;20235;-64
2023/08/25 04:01:37;;;;;;;3.07;1.50;;;19.50;99.90;;;;;;4992657;28;20188;-64
2023/08/25 04:04:03;;;;;;;2.83;1.37;;;19.50;99.90;;;;;;5011327;28;20982;-64
2023/08/25 04:06:29;;;;;;;3.37;2.07;;;19.50;99.90;;;;;;5002017;28;20440;-64
2023/08/25 04:08:54;;;;;;;4.77;2.53;;;19.40;99.90;;;;;;4996309;28;20230;-64
2023/08/25 04:11:20;;;;;;;4.97;1.50;;;19.40;99.90;;;;;;5004983;28;20215;-65
2023/08/25 04:13:47;;;;;;;5.60;2.17;;;19.30;99.90;;;;;;5013133;28;20617;-64
2023/08/25 04:16:13;;;;;;;3.03;1.83;;;19.30;99.90;;;;;;5012531;28;20731;-64
2023/08/25 04:18:38;;;;;;;11.80;1.80;;;19.30;99.90;;;;;;5013311;28;20448;-64
2023/08/25 04:21:04;;;;;;;4.47;2.30;;;19.30;99.90;;;;;;5002343;28;20212;-64
2023/08/25 04:23:30;;;;;;;4.10;1.70;;;19.20;99.90;;;;;;5010834;28;20178;-64
2023/08/25 04:25:56;;;;;;;3.73;1.63;;;19.20;99.90;;;;;;5005236;28;20187;-64
2023/08/25 04:28:22;;;;;;;5.70;1.87;;;19.20;99.90;;;;;;5001393;28;20429;-64
2023/08/25 04:30:51;;;;;;;2.43;1.47;;;19.30;99.90;;;;;;5006533;28;20504;-65
2023/08/25 04:33:16;;;;;;;2.83;1.57;;;19.40;99.90;;;;;;5000042;28;20200;-64
2023/08/25 04:35:42;;;;;;;7.47;2.60;;;19.30;99.90;;;;;;5005766;28;20874;-64
2023/08/25 04:38:07;;;;;;;4.73;1.50;;;19.30;99.90;;;;;;5012445;28;20310;-64
2023/08/25 04:40:33;;;;;;;4.07;2.30;;;19.20;99.90;;;;;;5013042;28;20545;-64
2023/08/25 04:42:58;;;;;;;6.30;1.60;;;19.20;99.90;;;;;;5012730;28;20214;-64
2023/08/25 04:45:24;;;;;;;5.90;1.47;;;19.10;99.90;;;;;;5012862;28;20524;-64
2023/08/25 04:47:49;;;;;;;3.00;1.77;;;19.10;99.90;;;;;;5012251;28;20777;-65
2023/08/25 04:50:15;;;;;;;2.67;1.50;;;19.00;99.90;;;;;;5013015;28;20210;-64
2023/08/25 04:52:41;;;;;;;5.47;1.80;;;19.00;99.90;;;;;;4999166;28;20572;-64
2023/08/25 04:55:07;;;;;;;3.37;1.80;;;18.90;99.90;;;;;;5012357;28;20176;-64
2023/08/25 04:57:34;;;;;;;18.93;2.80;;;18.90;99.90;;;;;;5012612;28;20552;-65
2023/08/25 05:00:03;;;;;;;3.23;1.67;;;18.90;99.90;;;;;;5012733;28;20949;-64
2023/08/25 05:02:28;;;;;;;5.00;2.17;;;18.90;99.90;;;;;;4994200;28;20427;-65
2023/08/25 05:04:54;;;;;;;6.77;2.40;;;18.90;99.90;;;;;;5003733;28;20496;-65
2023/08/25 05:07:19;;;;;;;3.80;1.93;;;19.00;99.90;;;;;;5001486;28;20239;-65
2023/08/25 05:09:45;;;;;;;9.60;1.87;;;19.00;99.90;;;;;;4995233;28;20231;-65
2023/08/25 05:12:11;;;;;;;2.83;1.70;;;19.00;99.90;;;;;;4997495;28;20193;-65
2023/08/25 05:14:37;;;;;;;4.90;1.87;;;19.10;99.90;;;;;;4983645;28;20239;-65
2023/08/25 05:17:02;;;;;;;2.80;1.77;;;19.10;99.90;;;;;;4999541;28;20572;-65
2023/08/25 05:19:28;;;;;;;3.57;1.47;;;19.20;99.90;;;;;;5003907;28;20246;-65
2023/08/25 05:21:53;;;;;;;2.27;1.43;;;19.30;99.90;;;;;;5007105;28;20672;-65
2023/08/25 05:24:26;;;;;;;9.70;1.90;;;19.40;99.90;;;;;;5003679;28;20544;-65
2023/08/25 05:26:53;;;;;;;7.97;1.47;;;19.40;99.90;;;;;;4995960;28;20191;-65
2023/08/25 05:29:22;;;;;;;3.13;1.90;;;19.50;99.90;;;;;;4994308;28;20831;-65
2023/08/25 05:31:49;;;;;;;10.50;1.90;;;19.60;99.90;;;;;;4994487;28;20426;-65
2023/08/25 05:34:15;;;;;;;3.80;1.87;;;19.70;99.90;;;;;;4992205;28;20502;-65
2023/08/25 05:36:41;;;;;;;6.00;1.97;;;19.70;99.90;;;;;;4984971;28;20414;-65
2023/08/25 05:39:06;;;;;;;4.43;1.87;;;19.80;99.90;;;;;;5011907;28;20760;-65
2023/08/25 05:41:32;;;;;;;2.83;1.83;;;19.90;99.90;;;;;;5011531;28;20421;-65
2023/08/25 05:43:58;;;;;;;2.87;1.77;;;19.90;99.90;;;;;;4998500;28;20214;-65
2023/08/25 05:46:24;;;;;;;8.20;2.07;;;20.00;99.90;;;;;;5011491;28;20606;-65
2023/08/25 05:48:50;;;;;;;7.20;2.10;;;20.00;99.90;;;;;;5011967;28;20187;-65
2023/08/25 05:51:15;;;;;;;3.80;1.97;;;20.10;99.90;;;;;;5010411;28;20981;-65
2023/08/25 05:53:41;;;;;;;3.37;2.07;;;20.20;99.90;;;;;;5011590;28;20190;-65
2023/08/25 05:56:07;;;;;;;2.73;1.77;;;20.30;99.90;;;;;;5005571;28;20183;-65
2023/08/25 05:58:32;;;;;;;3.23;1.60;;;20.30;99.90;;;;;;5004655;28;20198;-65
2023/08/25 06:00:58;;;;;;;8.07;1.37;;;20.40;99.90;;;;;;5010793;28;20187;-65
2023/08/25 06:03:25;;;;;;;3.90;1.50;;;20.40;99.90;;;;;;5004803;28;20208;-65
2023/08/25 06:05:53;;;;;;;2.87;1.57;;;20.50;99.90;;;;;;4996711;28;20445;-65
2023/08/25 06:08:20;;;;;;;2.70;1.57;;;20.50;99.90;;;;;;4981169;28;20451;-63
2023/08/25 06:10:49;;;;;;;2.83;1.80;;;20.60;99.90;;;;;;4992471;28;20474;-63
2023/08/25 06:13:15;;;;;;;3.23;1.60;;;20.60;99.90;;;;;;4992007;28;20423;-63
2023/08/25 06:15:40;;;;;;;5.77;2.23;;;20.60;99.90;;;;;;5010714;28;20468;-64
2023/08/25 06:18:06;;;;;;;3.83;2.00;;;20.60;99.90;;;;;;5011210;28;20266;-63
2023/08/25 06:20:32;;;;;;;7.93;2.37;;;20.50;99.90;;;;;;5010820;28;20209;-63
2023/08/25 06:22:58;;;;;;;5.07;2.30;;;20.50;99.90;;;;;;4989719;28;20191;-63
2023/08/25 06:25:24;;;;;;;3.30;2.20;;;20.50;99.90;;;;;;4985716;28;20230;-64
2023/08/25 06:27:50;;;;;;;10.53;2.20;;;20.50;99.90;;;;;;4994939;28;20184;-64
2023/08/25 06:30:17;;;;;;;8.90;2.17;;;20.50;99.90;;;;;;4984599;28;20463;-64
2023/08/25 06:32:43;;;;;;;4.33;1.80;;;20.40;99.90;;;;;;4990822;28;20444;-65
2023/08/25 06:35:13;;;;;;;6.43;3.13;;;20.50;99.90;;;;;;4991186;28;20415;-64
2023/08/25 06:37:39;;;;;;;6.73;2.23;;;20.40;99.90;;;;;;4990305;28;20423;-64
2023/08/25 06:40:10;;;;;;;3.97;1.90;;;20.40;99.90;;;;;;4991434;28;20761;-64
2023/08/25 06:42:37;;;;;;;2.53;1.50;;;20.50;99.90;;;;;;4991050;28;20195;-64
2023/08/25 06:45:07;;;;;;;4.30;2.17;;;20.40;99.90;;;;;;4990872;28;20419;-64
2023/08/25 06:47:34;;;;;;;4.90;2.17;;;20.30;99.90;;;;;;4990591;28;20895;-65
2023/08/25 06:50:00;;;;;;;4.27;1.90;;;20.10;99.90;;;;;;4991003;28;20545;-64
2023/08/25 06:52:25;;;;;;;13.87;2.50;;;20.00;99.90;;;;;;4990147;28;20506;-64
2023/08/25 06:54:51;;;;;;;4.37;2.33;;;19.90;99.90;;;;;;4990640;28;21055;-64
2023/08/25 06:57:17;;;;;;;25.73;7.73;;;19.80;99.90;;;;;;4987069;28;20247;-64
2023/08/25 06:59:42;;;;;;;17.30;4.93;;;19.80;99.90;;;;;;4990692;28;20259;-64
2023/08/25 07:02:08;;;;;;;3.97;2.27;;;19.80;99.90;;;;;;4984879;28;20233;-64
2023/08/25 07:04:34;;;;;;;4.40;2.10;;;19.70;99.90;;;;;;4990528;28;20271;-64
2023/08/25 07:07:00;;;;;;;3.33;1.87;;;19.70;99.90;;;;;;4990169;28;20188;-64
2023/08/25 07:09:27;;;;;;;7.00;2.50;;;19.70;99.90;;;;;;4990520;28;20238;-64
2023/08/25 07:11:52;;;;;;;7.13;2.00;;;19.70;99.90;;;;;;4990671;28;20480;-64
2023/08/25 07:14:18;;;;;;;4.27;2.40;;;19.70;99.90;;;;;;4990801;28;20818;-65
2023/08/25 07:16:44;;;;;;;8.53;4.03;;;19.60;99.90;;;;;;4990121;28;20194;-65
2023/08/25 07:19:10;;;;;;;5.70;3.23;;;19.50;99.90;;;;;;4990717;28;20689;-64
2023/08/25 07:21:36;;;;;;;5.60;2.73;;;19.30;99.90;;;;;;4989288;28;20648;-64
2023/08/25 07:24:02;;;;;;;7.00;2.67;;;19.20;99.90;;;;;;4988102;28;20415;-64
2023/08/25 07:26:28;;;;;;;4.33;2.20;;;19.10;99.90;;;;;;4992157;28;20294;-64
2023/08/25 07:28:54;;;;;;;4.77;2.73;;;19.00;99.90;;;;;;4992064;28;20411;-64
2023/08/25 07:31:20;;;;;;;5.67;2.00;;;18.90;99.90;;;;;;4990171;28;20317;-64
2023/08/25 07:33:45;;;;;;;9.53;1.93;;;18.90;99.90;;;;;;4990433;28;20192;-64
2023/08/25 07:36:11;;;;;;;6.43;2.40;;;18.90;99.90;;;;;;4990028;28;20668;-64
2023/08/25 07:38:37;;;;;;;4.47;2.30;;;18.80;99.90;;;;;;4990572;28;20207;-64
2023/08/25 07:41:02;;;;;;;3.47;1.90;;;18.80;99.90;;;;;;4990334;28;20607;-64
2023/08/25 07:43:28;;;;;;;2.40;1.23;;;18.70;99.90;;;;;;4990207;28;20991;-63
2023/08/25 07:45:54;;;;;;;4.23;1.70;;;18.70;99.90;;;;;;4990070;28;20194;-64
2023/08/25 07:48:21;;;;;;;2.90;1.60;;;18.60;99.90;;;;;;4990439;28;20267;-64
2023/08/25 07:50:47;;;;;;;4.20;2.00;;;18.60;99.90;;;;;;4990488;28;20947;-64
2023/08/25 07:53:13;;;;;;;4.40;2.00;;;18.70;99.90;;;;;;4989726;28;20411;-64
2023/08/25 07:55:39;;;;;;;4.80;2.30;;;18.60;99.90;;;;;;4990593;28;20180;-64
2023/08/25 07:58:09;;;;;;;5.30;2.30;;;18.60;99.90;;;;;;4990534;28;20419;-64
2023/08/25 08:00:36;;;;;;;3.40;2.23;;;18.60;99.90;;;;;;4990450;28;20184;-64
2023/08/25 08:03:04;;;;;;;5.43;2.40;;;18.60;99.90;;;;;;4990370;28;20434;-64
2023/08/25 08:05:30;;;;;;;2.53;1.43;;;18.50;99.90;;;;;;4990074;28;20434;-64
2023/08/25 08:07:56;;;;;;;11.57;1.83;;;18.50;99.90;;;;;;4989313;28;20923;-64
2023/08/25 08:10:21;;;;;;;7.00;2.00;;;18.50;99.90;;;;;;4989383;28;20494;-64
2023/08/25 08:12:47;;;;;;;4.50;2.13;;;18.40;99.90;;;;;;4989487;28;20536;-64
2023/08/25 08:15:13;;;;;;;4.50;2.60;;;18.40;99.90;;;;;;4992606;28;20214;-64
2023/08/25 08:17:40;;;;;;;7.70;2.43;;;18.30;99.90;;;;;;4992536;28;20249;-66
2023/08/25 08:20:08;;;;;;;4.67;2.10;;;18.30;99.90;;;;;;4992973;28;20449;-65
2023/08/25 08:22:34;;;;;;;6.20;3.20;;;18.30;99.90;;;;;;4993051;28;20427;-65
2023/08/25 08:25:00;;;;;;;6.27;2.27;;;18.30;99.90;;;;;;4992617;28;20727;-65
2023/08/25 08:27:25;;;;;;;5.00;2.40;;;18.20;99.90;;;;;;4996652;28;20226;-65
2023/08/25 08:29:51;;;;;;;3.90;2.00;;;18.20;99.90;;;;;;4992700;28;20207;-65
2023/08/25 08:32:17;;;;;;;7.60;3.00;;;18.20;99.90;;;;;;4992312;28;20190;-65
2023/08/25 08:34:43;;;;;;;5.20;2.83;;;18.20;99.90;;;;;;4992236;28;20419;-65
2023/08/25 08:37:09;;;;;;;11.70;2.50;;;18.20;99.90;;;;;;4992448;28;20614;-65
2023/08/25 08:39:38;;;;;;;9.80;2.50;;;18.20;99.90;;;;;;4992583;28;20655;-65
2023/08/25 08:42:07;;;;;;;7.23;2.70;;;18.20;99.90;;;;;;4992785;28;20202;-65
2023/08/25 08:44:37;;;;;;;4.27;1.80;;;18.20;99.90;;;;;;4992413;28;20438;-65
2023/08/25 08:47:03;;;;;;;10.40;2.40;;;18.20;99.90;;;;;;4992156;28;20419;-65
2023/08/25 08:49:32;;;;;;;11.47;2.80;;;18.30;99.90;;;;;;4992811;28;20433;-65
2023/08/25 08:51:58;;;;;;;11.50;2.90;;;18.30;99.90;;;;;;4992360;28;20501;-65
2023/08/25 08:54:25;;;;;;;5.57;3.00;;;18.30;99.90;;;;;;4992221;28;20413;-65
2023/08/25 08:56:53;;;;;;;6.40;2.40;;;18.40;99.90;;;;;;4992246;28;20461;-65
2023/08/25 08:59:18;;;;;;;3.97;2.60;;;18.50;99.90;;;;;;4992032;28;20422;-66
2023/08/25 09:01:44;;;;;;;3.03;1.83;;;18.50;99.90;;;;;;4991855;28;20407;-65
2023/08/25 09:04:11;;;;;;;4.50;2.70;;;18.60;99.90;;;;;;4992307;28;20184;-65
2023/08/25 09:06:38;;;;;;;15.23;2.77;;;18.60;99.90;;;;;;4992022;28;20767;-66
2023/08/25 09:09:08;;;;;;;5.00;2.70;;;18.70;99.90;;;;;;4992778;28;20510;-66
2023/08/25 09:11:35;;;;;;;6.07;2.47;;;18.60;99.90;;;;;;4992729;28;20463;-66
2023/08/25 09:14:04;;;;;;;3.60;1.93;;;18.60;99.90;;;;;;4992097;28;20470;-66
2023/08/25 09:16:33;;;;;;;5.00;3.03;;;18.60;99.90;;;;;;4992434;28;20552;-66
2023/08/25 09:19:05;;;;;;;5.50;2.10;;;18.70;99.90;;;;;;4992713;28;20415;-66
2023/08/25 09:21:31;;;;;;;8.53;2.17;;;18.80;99.90;;;;;;4991945;28;20439;-66
2023/08/25 09:24:00;;;;;;;3.57;2.10;;;18.80;99.90;;;;;;4992282;28;20974;-66
2023/08/25 09:26:28;;;;;;;6.07;2.10;;;18.90;99.90;;;;;;4992371;28;20422;-66
2023/08/25 09:28:55;;;;;;;2.20;1.40;;;19.00;99.90;;;;;;4994289;28;20419;-66
2023/08/25 09:31:23;;;;;;;5.83;1.60;;;19.10;99.90;;;;;;4991967;28;20470;-66
2023/08/25 09:33:50;;;;;;;2.97;2.00;;;19.10;99.90;;;;;;4992254;28;20410;-66
2023/08/25 09:36:16;;;;;;;4.17;2.40;;;19.30;99.90;;;;;;4992203;28;20818;-66
2023/08/25 09:38:46;;;;;;;4.53;1.60;;;19.40;99.90;;;;;;4992453;28;20903;-66
2023/08/25 09:41:21;;;;;;;5.83;2.67;;;19.40;99.90;;;;;;4992370;28;20282;-66
2023/08/25 09:43:47;;;;;;;5.77;2.20;;;19.60;99.90;;;;;;4992069;28;20953;-66
2023/08/25 09:46:14;;;;;;;5.83;1.80;;;20.00;99.90;;;;;;4991695;28;20427;-66
2023/08/25 09:48:40;;;;;;;3.50;1.97;;;20.20;99.90;;;;;;4992276;28;20188;-66
2023/08/25 09:51:06;;;;;;;4.70;2.07;;;20.50;99.90;;;;;;4991834;28;20466;-66
2023/08/25 09:53:33;;;;;;;4.10;1.97;;;20.80;99.90;;;;;;4991370;28;20426;-66
2023/08/25 09:56:06;;;;;;;7.60;1.80;;;21.00;99.90;;;;;;4991815;28;20508;-66
2023/08/25 09:58:32;;;;;;;3.90;2.00;;;21.00;99.90;;;;;;4992447;28;20423;-67
2023/08/25 10:00:58;;;;;;;6.07;2.03;;;21.00;99.90;;;;;;4991128;28;20426;-66
2023/08/25 10:03:25;;;;;;;2.63;1.50;;;21.10;99.90;;;;;;4991644;28;20919;-66
2023/08/25 10:05:50;;;;;;;4.80;1.77;;;21.10;99.90;;;;;;4991490;28;20754;-66
2023/08/25 10:08:17;;;;;;;2.77;1.50;;;21.10;99.90;;;;;;4991467;28;20446;-66
2023/08/25 10:10:44;;;;;;;4.00;1.40;;;21.20;99.90;;;;;;4991362;28;20469;-66
2023/08/25 10:13:14;;;;;;;4.97;2.00;;;21.40;99.90;;;;;;4991716;28;20430;-66
2023/08/25 10:15:42;;;;;;;3.00;1.83;;;21.40;99.90;;;;;;4991260;28;20514;-66
2023/08/25 10:18:08;;;;;;;6.63;1.83;;;21.60;99.90;;;;;;4991892;28;20431;-66
2023/08/25 10:20:35;;;;;;;3.10;1.83;;;21.60;99.90;;;;;;4978551;28;20438;-66
2023/08/25 10:23:05;;;;;;;2.67;1.73;;;21.70;99.90;;;;;;4991358;28;20534;-66
2023/08/25 10:25:31;;;;;;;3.30;1.60;;;21.70;99.90;;;;;;4979087;28;20912;-66
2023/08/25 10:27:58;;;;;;;4.47;1.47;;;21.70;99.90;;;;;;4995119;28;20991;-66
2023/08/25 10:30:25;;;;;;;3.43;2.07;;;21.80;99.90;;;;;;4991483;28;20458;-66
2023/08/25 10:32:55;;;;;;;4.27;2.20;;;21.70;99.90;;;;;;4990661;28;20439;-66
2023/08/25 10:35:44;;;;;;;7.93;2.63;;;21.60;99.90;;;;;;4990913;28;20426;-66
2023/08/25 10:38:30;;;;;;;3.47;1.80;;;21.70;99.90;;;;;;4990801;28;20763;-66
2023/08/25 10:40:56;;;;;;;5.07;2.00;;;21.80;99.90;;;;;;4983878;28;20787;-66
2023/08/25 10:43:27;;;;;;;7.07;2.30;;;21.90;99.90;;;;;;4990853;28;20505;-66
2023/08/25 10:45:53;;;;;;;4.77;2.27;;;21.90;99.90;;;;;;4990383;28;20419;-64
2023/08/25 10:48:21;;;;;;;3.67;2.10;;;22.20;99.90;;;;;;4991090;28;20510;-64
2023/08/25 10:50:51;;;;;;;10.53;1.93;;;22.40;99.90;;;;;;4990803;28;20462;-64
2023/08/25 10:53:41;;;;;;;3.30;2.00;;;22.60;99.90;;;;;;4990331;28;20927;-64
2023/08/25 10:56:23;;;;;;;3.50;1.90;;;22.60;99.90;;;;;;4990749;28;20426;-64
2023/08/25 10:58:54;;;;;;;2.93;1.77;;;22.70;99.90;;;;;;4990989;28;20419;-64
2023/08/25 11:01:23;;;;;;;3.70;1.60;;;22.60;99.90;;;;;;4990227;28;20430;-65
2023/08/25 11:04:12;;;;;;;3.20;1.67;;;22.70;99.90;;;;;;4990613;28;20418;-64
2023/08/25 11:06:42;;;;;;;4.97;1.80;;;22.60;99.90;;;;;;4984303;28;20847;-64
2023/08/25 11:09:09;;;;;;;2.90;1.57;;;22.60;99.90;;;;;;4990741;28;20418;-64
2023/08/25 11:11:42;;;;;;;3.00;1.90;;;22.60;99.90;;;;;;4990618;28;20462;-64
2023/08/25 11:14:07;;;;;;;4.47;2.50;;;22.60;99.90;;;;;;4978383;28;20403;-64
2023/08/25 11:16:37;;;;;;;5.57;2.10;;;22.80;99.90;;;;;;4990753;28;20414;-64
2023/08/25 11:19:02;;;;;;;3.87;2.00;;;23.00;99.90;;;;;;4990779;28;20706;-64
2023/08/25 11:21:29;;;;;;;4.00;2.33;;;23.10;99.90;;;;;;4990362;28;20522;-64
2023/08/25 11:23:54;;;;;;;2.97;1.90;;;23.40;99.90;;;;;;4990223;28;20262;-64
2023/08/25 11:26:21;;;;;;;4.67;2.73;;;23.50;99.90;;;;;;4991141;28;20513;-64
2023/08/25 11:28:51;;;;;;;3.10;1.60;;;23.70;99.90;;;;;;4993162;28;20267;-64
2023/08/25 11:31:19;;;;;;;3.67;2.00;;;23.70;99.90;;;;;;4989603;28;20469;-64
2023/08/25 11:33:46;;;;;;;4.00;2.10;;;23.50;99.90;;;;;;4990449;28;20417;-64
2023/08/25 11:36:15;;;;;;;3.53;2.00;;;23.70;99.90;;;;;;4990142;28;20418;-64
2023/08/25 11:38:41;;;;;;;5.33;2.23;;;23.50;99.90;;;;;;4990328;28;20586;-64
2023/08/25 11:41:07;;;;;;;2.73;1.67;;;23.50;99.90;;;;;;4989973;28;20424;-64
2023/08/25 11:43:33;;;;;;;4.13;2.20;;;23.40;99.90;;;;;;4990129;28;20783;-64
2023/08/25 11:45:59;;;;;;;3.03;1.77;;;23.30;99.90;;;;;;4989590;28;20625;-64
2023/08/25 11:48:25;;;;;;;3.87;2.70;;;23.30;99.90;;;;;;4990939;28;20206;-64
2023/08/25 11:50:51;;;;;;;5.33;2.00;;;23.40;99.90;;;;;;4994002;28;20469;-64
2023/08/25 11:53:17;;;;;;;7.20;2.40;;;23.50;99.90;;;;;;4993659;28;20476;-64
2023/08/25 11:55:57;;;;;;;3.60;2.13;;;23.80;99.90;;;;;;4994025;28;20183;-64
2023/08/25 11:58:37;;;;;;;8.63;1.93;;;24.20;99.90;;;;;;4994303;28;20639;-64
2023/08/25 12:01:10;;;;;;;3.90;2.27;;;24.40;99.90;;;;;;4993676;28;20441;-64
2023/08/25 12:03:42;;;;;;;4.50;2.63;;;24.50;99.90;;;;;;4993992;28;20456;-64
2023/08/25 12:06:10;;;;;;;2.90;1.70;;;24.60;99.90;;;;;;4994320;28;20422;-64
2023/08/25 12:08:37;;;;;;;4.80;2.83;;;24.60;99.90;;;;;;4993928;28;20442;-64
2023/08/25 12:11:06;;;;;;;2.50;1.80;;;24.50;99.90;;;;;;4993390;28;20488;-64
2023/08/25 12:13:35;;;;;;;5.43;2.50;;;24.50;99.90;;;;;;4993385;28;20528;-64
2023/08/25 12:16:03;;;;;;;5.27;2.40;;;24.60;99.90;;;;;;4993534;28;20826;-64
2023/08/25 12:18:35;;;;;;;6.13;1.87;;;24.60;99.90;;;;;;4993687;28;20945;-64
2023/08/25 12:21:05;;;;;;;5.80;2.83;;;24.60;99.90;;;;;;4993619;28;21026;-64
2023/08/25 12:23:41;;;;;;;9.27;2.80;;;24.50;99.90;;;;;;4992377;28;20426;-64
2023/08/25 12:26:13;;;;;;;4.43;2.00;;;24.30;99.90;;;;;;4988561;28;20464;-64
2023/08/25 12:28:43;;;;;;;4.37;2.40;;;24.30;99.90;;;;;;4997004;28;20427;-64
2023/08/25 12:31:09;;;;;;;2.77;1.73;;;24.10;99.90;;;;;;4987199;28;20465;-64
2023/08/25 12:33:35;;;;;;;4.90;2.50;;;24.10;99.90;;;;;;4993113;28;20425;-64
2023/08/25 12:36:00;;;;;;;5.80;2.53;;;24.00;99.90;;;;;;4992328;28;20419;-64
2023/08/25 12:38:26;;;;;;;10.20;2.63;;;24.00;99.90;;;;;;4992988;28;20277;-64
2023/08/25 12:40:52;;;;;;;4.57;2.20;;;24.10;99.90;;;;;;4993494;28;20214;-64
2023/08/25 12:43:19;;;;;;;4.97;3.03;;;24.30;99.90;;;;;;4992949;28;20187;-64
2023/08/25 12:45:45;;;;;;;7.33;2.23;;;24.50;99.90;;;;;;4992799;28;20426;-64